Time;durP1;ratioP1;P1;durP2;ratioP2;P2;SDS_P1;SDS_P2;PMS_P1;PMS_P2;Temp;Humidity;BMP_temperature;BMP_pressure;BME280_temperature;BME280_humidity;BME280_pressure;Samples;Min_cycle;Max_cycle;Signal;HPM_P1;HPM_P2
2022/01/02 00:00:24;;;;;;;;;;;6.50;99.90;;;;;;5009265;28;19909;-72
2022/01/02 00:02:51;;;;;;;;;;;6.60;99.90;;;;;;5011832;28;19936;-71
2022/01/02 00:05:18;;;;;;;;;;;6.60;99.90;;;;;;5011903;28;19910;-71
2022/01/02 00:07:53;;;;;;;;;;;6.60;99.90;;;;;;5011641;28;19909;-71
2022/01/02 00:10:20;;;;;;;;;;;6.50;99.90;;;;;;5009116;28;19991;-72
2022/01/02 00:12:49;;;;;;;;;;;6.50;99.90;;;;;;5010682;28;20256;-71
2022/01/02 00:15:15;;;;;;;;;;;6.40;99.90;;;;;;5010839;28;19916;-71
2022/01/02 00:17:42;;;;;;;;;;;6.40;99.90;;;;;;5008725;28;19994;-72
2022/01/02 00:20:12;;;;;;;;;;;6.40;99.90;;;;;;5013827;28;19990;-72
2022/01/02 00:22:40;;;;;;;;;;;6.30;99.90;;;;;;5017684;28;20114;-71
2022/01/02 00:25:12;;;;;;;;;;;6.30;99.90;;;;;;5011275;28;19909;-71
2022/01/02 00:27:39;;;;;;;;;;;6.40;99.90;;;;;;5010083;28;19916;-71
2022/01/02 00:30:05;;;;;;;;;;;6.40;99.90;;;;;;5010411;28;19944;-71
2022/01/02 00:32:33;;;;;;;;;;;6.50;99.90;;;;;;5009895;28;19978;-71
2022/01/02 00:34:59;;;;;;;;;;;6.40;99.90;;;;;;5006721;28;19917;-72
2022/01/02 00:37:25;;;;;;;;;;;6.40;99.90;;;;;;5010200;28;20184;-72
2022/01/02 00:39:50;;;;;;;;;;;6.30;99.90;;;;;;5011025;28;19939;-72
2022/01/02 00:42:25;;;;;;;;;;;6.40;99.90;;;;;;5010248;28;20509;-71
2022/01/02 00:44:57;;;;;;;;;;;6.40;99.90;;;;;;5011023;28;20355;-71
2022/01/02 00:47:27;;;;;;;;;;;6.40;99.90;;;;;;5004700;28;20083;-71
2022/01/02 00:50:13;;;;;;;;;;;6.30;99.90;;;;;;5010469;28;19932;-72
2022/01/02 00:52:43;;;;;;;;;;;6.30;99.90;;;;;;5009640;28;19925;-71
2022/01/02 00:55:13;;;;;;;;;;;6.30;99.90;;;;;;5010668;28;19910;-70
2022/01/02 00:57:42;;;;;;;;;;;6.20;99.90;;;;;;5011642;28;19972;-71
2022/01/02 01:00:09;;;;;;;;;;;6.20;99.90;;;;;;5021458;28;19917;-71
2022/01/02 01:02:40;;;;;;;;;;;6.10;99.90;;;;;;5022585;28;19909;-71
2022/01/02 01:05:07;;;;;;;;;;;6.10;99.90;;;;;;5009287;28;19956;-71
2022/01/02 01:07:33;;;;;;;;;;;6.10;99.90;;;;;;5018028;28;19909;-72
2022/01/02 01:09:59;;;;;;;;;;;6.10;99.90;;;;;;5012171;28;19975;-71
2022/01/02 01:12:25;;;;;;;;;;;6.20;99.90;;;;;;5018454;28;19948;-71
2022/01/02 01:14:51;;;;;;;;;;;6.20;99.90;;;;;;5012942;28;19920;-70
2022/01/02 01:17:17;;;;;;;;;;;6.10;99.90;;;;;;5009961;28;19913;-72
2022/01/02 01:19:43;;;;;;;;;;;6.10;99.90;;;;;;5009846;28;19910;-71
2022/01/02 01:22:09;;;;;;;;;;;6.10;99.90;;;;;;5011460;28;20498;-71
2022/01/02 01:24:35;;;;;;;;;;;6.10;99.90;;;;;;5012703;28;19916;-72
2022/01/02 01:27:04;;;;;;;;;;;6.10;99.90;;;;;;5010914;28;20383;-70
2022/01/02 01:29:34;;;;;;;;;;;6.10;99.90;;;;;;5009046;28;19910;-71
2022/01/02 01:32:03;;;;;;;;;;;6.10;99.90;;;;;;5010259;28;20298;-71
2022/01/02 01:34:28;;;;;;;;;;;6.10;99.90;;;;;;5006327;28;19913;-70
2022/01/02 01:36:54;;;;;;;;;;;6.10;99.90;;;;;;5010521;28;20326;-72
2022/01/02 01:39:20;;;;;;;;;;;6.20;99.90;;;;;;5007651;28;19920;-72
2022/01/02 01:41:46;;;;;;;;;;;6.10;99.90;;;;;;5005586;28;19916;-73
2022/01/02 01:46:38;;;;;;;;;;;6.10;99.90;;;;;;5005705;28;20000;-70
2022/01/02 01:49:14;;;;;;;;;;;6.20;99.90;;;;;;5007746;28;19913;-71
2022/01/02 01:51:39;;;;;;;;;;;6.10;99.90;;;;;;5011233;28;19995;-71
2022/01/02 01:54:05;;;;;;;;;;;6.10;99.90;;;;;;5012320;28;19945;-71
2022/01/02 01:56:31;;;;;;;;;;;6.10;99.90;;;;;;5012271;28;19925;-71
2022/01/02 01:58:56;;;;;;;;;;;6.10;99.90;;;;;;5009452;28;19910;-71
2022/01/02 02:01:22;;;;;;;;;;;6.10;99.90;;;;;;5010660;28;19909;-72
2022/01/02 02:03:48;;;;;;;;;;;6.00;99.90;;;;;;5012815;28;20056;-70
2022/01/02 02:06:14;;;;;;;;;;;5.80;99.90;;;;;;5011599;28;19955;-71
2022/01/02 02:08:39;;;;;;;;;;;5.80;99.90;;;;;;5011959;28;20008;-71
2022/01/02 02:11:05;;;;;;;;;;;5.70;99.90;;;;;;5007894;28;19989;-71
2022/01/02 02:13:30;;;;;;;;;;;5.70;99.90;;;;;;5012783;28;19920;-72
2022/01/02 02:15:57;;;;;;;;;;;5.80;99.90;;;;;;5010741;28;20331;-71
2022/01/02 02:18:22;;;;;;;;;;;5.70;99.90;;;;;;5009202;28;20381;-70
2022/01/02 02:20:48;;;;;;;;;;;5.60;99.90;;;;;;5012383;28;19913;-71
2022/01/02 02:23:14;;;;;;;;;;;5.60;99.90;;;;;;5011762;28;19909;-71
2022/01/02 02:25:40;;;;;;;;;;;5.60;99.90;;;;;;5010588;28;19913;-71
2022/01/02 02:28:10;;;;;;;;;;;5.60;99.90;;;;;;5008686;28;19932;-71
2022/01/02 02:30:36;;;;;;;;;;;5.60;99.90;;;;;;5010774;28;19910;-70
2022/01/02 02:33:03;;;;;;;;;;;5.60;99.90;;;;;;5012696;28;21469;-71
2022/01/02 02:35:30;;;;;;;;;;;5.60;99.90;;;;;;5012648;28;19910;-72
2022/01/02 02:37:55;;;;;;;;;;;5.70;99.90;;;;;;5011235;28;19913;-71
2022/01/02 02:40:22;;;;;;;;;;;5.70;99.90;;;;;;5011346;28;20409;-71
2022/01/02 02:42:53;;;;;;;;;;;5.70;99.90;;;;;;5010887;28;19913;-71
2022/01/02 02:50:57;;;;;;;;;;;5.90;99.90;;;;;;5011852;28;19927;-71
2022/01/02 02:53:23;;;;;;;;;;;5.90;99.90;;;;;;5010608;28;20011;-72
2022/01/02 02:55:54;;;;;;;;;;;6.00;99.90;;;;;;5011730;28;19909;-71
2022/01/02 03:00:58;;;;;;;;;;;6.20;99.90;;;;;;5009414;28;20139;-71
2022/01/02 03:03:23;;;;;;;;;;;6.30;99.90;;;;;;5012000;28;19909;-72
2022/01/02 03:05:49;;;;;;;;;;;6.40;99.90;;;;;;5011238;28;20004;-71
2022/01/02 03:08:14;;;;;;;;;;;6.40;99.90;;;;;;5013086;28;19966;-72
2022/01/02 03:10:40;;;;;;;;;;;6.40;99.90;;;;;;5012829;28;19910;-72
2022/01/02 03:13:06;;;;;;;;;;;6.40;99.90;;;;;;5012370;28;19917;-72
2022/01/02 03:15:31;;;;;;;;;;;6.30;99.90;;;;;;5012990;28;20205;-71
2022/01/02 03:17:57;;;;;;;;;;;6.40;99.90;;;;;;5010833;28;20302;-71
2022/01/02 03:20:22;;;;;;;;;;;6.40;99.90;;;;;;5012563;28;19920;-71
2022/01/02 03:22:48;;;;;;;;;;;6.40;99.90;;;;;;5014268;28;19909;-71
2022/01/02 03:25:14;;;;;;;;;;;6.40;99.90;;;;;;5014151;28;19917;-71
2022/01/02 03:27:40;;;;;;;;;;;6.40;99.90;;;;;;5011669;28;19939;-71
2022/01/02 03:30:06;;;;;;;;;;;6.20;99.90;;;;;;5010314;28;19909;-70
2022/01/02 03:32:32;;;;;;;;;;;6.20;99.90;;;;;;5010034;28;20001;-70
2022/01/02 03:34:57;;;;;;;;;;;6.10;99.90;;;;;;5009382;28;19948;-71
2022/01/02 03:37:28;;;;;;;;;;;5.90;99.90;;;;;;5012028;28;19989;-72
2022/01/02 03:39:53;;;;;;;;;;;5.80;99.90;;;;;;5011321;28;19973;-70
2022/01/02 03:42:19;;;;;;;;;;;5.90;99.90;;;;;;5011407;28;19913;-71
2022/01/02 03:44:44;;;;;;;;;;;5.80;99.90;;;;;;5011035;28;19906;-71
2022/01/02 03:47:10;;;;;;;;;;;5.60;99.90;;;;;;5010409;28;19969;-71
2022/01/02 03:49:35;;;;;;;;;;;5.30;99.90;;;;;;5011179;28;19913;-71
2022/01/02 03:52:01;;;;;;;;;;;5.30;99.90;;;;;;5010719;28;19913;-72
2022/01/02 03:54:27;;;;;;;;;;;5.20;99.90;;;;;;5010049;28;19909;-72
2022/01/02 03:56:54;;;;;;;;;;;5.30;99.90;;;;;;5010739;28;20394;-72
2022/01/02 03:59:19;;;;;;;;;;;5.30;99.90;;;;;;5010229;28;19956;-72
2022/01/02 04:01:45;;;;;;;;;;;5.30;99.90;;;;;;5010031;28;19980;-73
2022/01/02 04:04:11;;;;;;;;;;;5.30;99.90;;;;;;5012583;28;19964;-73
2022/01/02 04:06:36;;;;;;;;;;;5.30;99.90;;;;;;5009135;28;19949;-72
2022/01/02 04:09:02;;;;;;;;;;;5.30;99.90;;;;;;5009364;28;19928;-72
2022/01/02 04:11:28;;;;;;;;;;;5.20;99.90;;;;;;5009199;28;19978;-72
2022/01/02 04:13:53;;;;;;;;;;;5.30;99.90;;;;;;5007697;28;19921;-73
2022/01/02 04:16:19;;;;;;;;;;;5.40;99.90;;;;;;5009424;28;20418;-72
2022/01/02 04:18:44;;;;;;;;;;;5.50;99.90;;;;;;5010320;28;19983;-72
2022/01/02 04:21:10;;;;;;;;;;;5.40;99.90;;;;;;5011040;28;19909;-73
2022/01/02 04:23:37;;;;;;;;;;;5.40;99.90;;;;;;5010136;28;20059;-71
2022/01/02 04:26:04;;;;;;;;;;;5.40;99.90;;;;;;5008833;28;19909;-71
2022/01/02 04:28:29;;;;;;;;;;;5.40;99.90;;;;;;5009928;28;20390;-71
2022/01/02 04:30:55;;;;;;;;;;;5.40;99.90;;;;;;5009521;28;19916;-72
2022/01/02 04:33:20;;;;;;;;;;;5.40;99.90;;;;;;5012409;28;19924;-72
2022/01/02 04:35:46;;;;;;;;;;;5.40;99.90;;;;;;5003837;28;19913;-73
2022/01/02 04:38:13;;;;;;;;;;;5.40;99.90;;;;;;5008124;28;19960;-73
2022/01/02 04:40:39;;;;;;;;;;;5.40;99.90;;;;;;5006936;28;20402;-72
2022/01/02 04:43:05;;;;;;;;;;;5.40;99.90;;;;;;5009491;28;19909;-71
2022/01/02 04:45:30;;;;;;;;;;;5.40;99.90;;;;;;5010937;28;19916;-71
2022/01/02 04:47:56;;;;;;;;;;;5.50;99.90;;;;;;5008801;28;19913;-71
2022/01/02 04:50:22;;;;;;;;;;;5.50;99.90;;;;;;5008435;28;19951;-71
2022/01/02 04:52:47;;;;;;;;;;;5.50;99.90;;;;;;5008137;28;19988;-71
2022/01/02 04:55:13;;;;;;;;;;;5.50;99.90;;;;;;5008629;28;19916;-72
2022/01/02 04:57:38;;;;;;;;;;;5.60;99.90;;;;;;5009904;28;19917;-72
2022/01/02 05:00:05;;;;;;;;;;;5.60;99.90;;;;;;5009843;28;19945;-72
2022/01/02 05:02:30;;;;;;;;;;;5.70;99.90;;;;;;5009197;28;19915;-71
2022/01/02 05:04:56;;;;;;;;;;;5.70;99.90;;;;;;5007577;28;20059;-73
2022/01/02 05:07:21;;;;;;;;;;;5.60;99.90;;;;;;5005237;28;19910;-72
2022/01/02 05:09:47;;;;;;;;;;;5.60;99.90;;;;;;5007875;28;20008;-72
2022/01/02 05:12:13;;;;;;;;;;;5.50;99.90;;;;;;5007733;28;19916;-71
2022/01/02 05:14:38;;;;;;;;;;;5.60;99.90;;;;;;5009510;28;20375;-71
2022/01/02 05:17:04;;;;;;;;;;;5.60;99.90;;;;;;5009238;28;19914;-71
2022/01/02 05:19:30;;;;;;;;;;;5.60;99.90;;;;;;5009517;28;19909;-72
2022/01/02 05:21:55;;;;;;;;;;;5.70;99.90;;;;;;5008718;28;19910;-72
2022/01/02 05:24:21;;;;;;;;;;;5.70;99.90;;;;;;5014112;28;20310;-72
2022/01/02 05:26:46;;;;;;;;;;;5.70;99.90;;;;;;5016143;28;19916;-72
2022/01/02 05:29:12;;;;;;;;;;;5.80;99.90;;;;;;5016866;28;19953;-71
2022/01/02 05:31:37;;;;;;;;;;;5.80;99.90;;;;;;5015397;28;21296;-73
2022/01/02 05:34:03;;;;;;;;;;;5.90;99.90;;;;;;5015613;28;20000;-73
2022/01/02 05:36:28;;;;;;;;;;;5.90;99.90;;;;;;5015271;28;20429;-72
2022/01/02 05:38:54;;;;;;;;;;;5.90;99.90;;;;;;5011806;28;19929;-72
2022/01/02 05:41:20;;;;;;;;;;;5.90;99.90;;;;;;5015290;28;19914;-72
2022/01/02 05:43:46;;;;;;;;;;;6.00;99.90;;;;;;5016045;28;19955;-72
2022/01/02 05:46:12;;;;;;;;;;;6.00;99.90;;;;;;5014836;28;20032;-72
2022/01/02 05:48:38;;;;;;;;;;;6.00;99.90;;;;;;5014589;28;19925;-72
2022/01/02 05:51:03;;;;;;;;;;;6.00;99.90;;;;;;5015005;28;19933;-72
2022/01/02 05:53:30;;;;;;;;;;;6.10;99.90;;;;;;5014955;28;19956;-72
2022/01/02 05:55:55;;;;;;;;;;;6.10;99.90;;;;;;5016717;28;19916;-71
2022/01/02 05:58:21;;;;;;;;;;;6.00;99.90;;;;;;5015555;28;20363;-73
2022/01/02 06:00:47;;;;;;;;;;;5.90;99.90;;;;;;5015266;28;20271;-72
2022/01/02 06:03:12;;;;;;;;;;;5.80;99.90;;;;;;5014659;28;19909;-72
2022/01/02 06:05:38;;;;;;;;;;;5.90;99.90;;;;;;5014859;28;20330;-71
2022/01/02 06:08:03;;;;;;;;;;;5.80;99.90;;;;;;5013516;28;19932;-73
2022/01/02 06:10:30;;;;;;;;;;;5.70;99.90;;;;;;5016824;28;19921;-73
2022/01/02 06:12:56;;;;;;;;;;;5.50;99.90;;;;;;5014727;28;19925;-73
2022/01/02 06:15:21;;;;;;;;;;;5.30;99.90;;;;;;5016018;28;19916;-72
2022/01/02 06:17:47;;;;;;;;;;;5.30;99.90;;;;;;5016471;28;20400;-72
2022/01/02 06:20:12;;;;;;;;;;;5.20;99.90;;;;;;5016152;28;19955;-73
2022/01/02 06:22:38;;;;;;;;;;;5.20;99.90;;;;;;5015582;28;19952;-71
2022/01/02 06:25:04;;;;;;;;;;;5.20;99.90;;;;;;5014817;28;19916;-72
2022/01/02 06:27:29;;;;;;;;;;;5.20;99.90;;;;;;5016675;28;19909;-72
2022/01/02 06:29:55;;;;;;;;;;;5.30;99.90;;;;;;5014915;28;19921;-72
2022/01/02 06:32:20;;;;;;;;;;;5.30;99.90;;;;;;5015890;28;19917;-73
2022/01/02 06:34:46;;;;;;;;;;;5.30;99.90;;;;;;5013947;28;19937;-72
2022/01/02 06:37:12;;;;;;;;;;;5.30;99.90;;;;;;5010201;28;19917;-71
2022/01/02 06:39:37;;;;;;;;;;;5.20;99.90;;;;;;5012238;28;20359;-72
2022/01/02 06:42:03;;;;;;;;;;;5.10;99.90;;;;;;5010271;28;19909;-71
2022/01/02 06:44:29;;;;;;;;;;;5.00;99.90;;;;;;5006450;28;20056;-72
2022/01/02 06:46:54;;;;;;;;;;;5.00;99.90;;;;;;5011778;28;20295;-71
2022/01/02 06:49:20;;;;;;;;;;;5.00;99.90;;;;;;5011344;28;19921;-71
2022/01/02 06:51:45;;;;;;;;;;;4.90;99.90;;;;;;5012316;28;19909;-72
2022/01/02 06:54:11;;;;;;;;;;;4.80;99.90;;;;;;5012116;28;19910;-72
2022/01/02 06:56:36;;;;;;;;;;;4.80;99.90;;;;;;5011337;28;19909;-71
2022/01/02 06:59:02;;;;;;;;;;;4.70;99.90;;;;;;5009461;28;19913;-72
2022/01/02 07:01:28;;;;;;;;;;;4.80;99.90;;;;;;5011791;28;19985;-73
2022/01/02 07:03:53;;;;;;;;;;;4.80;99.90;;;;;;5008870;28;19917;-72
2022/01/02 07:06:19;;;;;;;;;;;4.90;99.90;;;;;;5009967;28;20077;-73
2022/01/02 07:08:44;;;;;;;;;;;4.90;99.90;;;;;;5012285;28;19916;-72
2022/01/02 07:11:11;;;;;;;;;;;5.00;99.90;;;;;;5010740;28;19909;-71
2022/01/02 07:13:38;;;;;;;;;;;5.00;99.90;;;;;;5011211;28;19913;-71
2022/01/02 07:16:04;;;;;;;;;;;5.00;99.90;;;;;;5011726;28;19916;-70
2022/01/02 07:18:29;;;;;;;;;;;5.10;99.90;;;;;;5011171;28;19996;-74
2022/01/02 07:20:55;;;;;;;;;;;5.00;99.90;;;;;;5009183;28;19914;-73
2022/01/02 07:23:20;;;;;;;;;;;5.00;99.90;;;;;;5011418;28;19906;-72
2022/01/02 07:25:46;;;;;;;;;;;4.90;99.90;;;;;;5011779;28;19909;-71
2022/01/02 07:28:11;;;;;;;;;;;5.00;99.90;;;;;;5010869;28;19906;-72
2022/01/02 07:30:37;;;;;;;;;;;5.00;99.90;;;;;;5009104;28;19996;-71
2022/01/02 07:33:03;;;;;;;;;;;4.90;99.90;;;;;;5011276;28;20294;-71
2022/01/02 07:35:29;;;;;;;;;;;4.90;99.90;;;;;;5009514;28;19906;-71
2022/01/02 07:37:55;;;;;;;;;;;4.90;99.90;;;;;;5010913;28;20004;-71
2022/01/02 07:40:21;;;;;;;;;;;5.00;99.90;;;;;;5008869;28;19992;-73
2022/01/02 07:42:47;;;;;;;;;;;5.00;99.90;;;;;;5010676;28;20287;-71
2022/01/02 07:45:13;;;;;;;;;;;5.10;99.90;;;;;;5009389;28;19917;-72
2022/01/02 07:47:39;;;;;;;;;;;5.00;99.90;;;;;;5005625;28;19913;-72
2022/01/02 07:50:05;;;;;;;;;;;5.10;99.90;;;;;;5006883;28;20407;-71
2022/01/02 07:52:30;;;;;;;;;;;5.10;99.90;;;;;;5009942;28;19959;-73
2022/01/02 07:54:56;;;;;;;;;;;5.20;99.90;;;;;;5010369;28;19909;-72
2022/01/02 07:57:21;;;;;;;;;;;5.30;99.90;;;;;;5011467;28;19920;-73
2022/01/02 07:59:47;;;;;;;;;;;5.40;99.90;;;;;;5011420;28;20000;-71
2022/01/02 08:02:12;;;;;;;;;;;5.40;99.90;;;;;;5010143;28;19928;-72
2022/01/02 08:04:38;;;;;;;;;;;5.50;99.90;;;;;;5011101;28;19941;-73
2022/01/02 08:07:03;;;;;;;;;;;5.50;99.90;;;;;;5010775;28;19987;-73
2022/01/02 08:09:29;;;;;;;;;;;5.60;99.90;;;;;;5011069;28;19955;-72
2022/01/02 08:11:54;;;;;;;;;;;5.50;99.90;;;;;;5009468;28;19906;-71
2022/01/02 08:14:21;;;;;;;;;;;5.40;99.90;;;;;;5009288;28;20406;-73
2022/01/02 08:16:47;;;;;;;;;;;5.50;99.90;;;;;;5008546;28;20000;-73
2022/01/02 08:19:13;;;;;;;;;;;5.50;99.90;;;;;;5007789;28;20024;-73
2022/01/02 08:21:39;;;;;;;;;;;5.60;99.90;;;;;;5007563;28;19918;-73
2022/01/02 08:24:05;;;;;;;;;;;5.70;99.90;;;;;;5009563;28;19909;-73
2022/01/02 08:26:30;;;;;;;;;;;5.80;99.90;;;;;;5007409;28;19916;-71
2022/01/02 08:29:00;;;;;;;;;;;5.90;99.90;;;;;;5006206;28;20047;-70
2022/01/02 08:31:26;;;;;;;;;;;6.00;99.90;;;;;;5005457;28;20007;-68
2022/01/02 08:33:51;;;;;;;;;;;6.00;99.90;;;;;;5010298;28;19909;-68
2022/01/02 08:36:17;;;;;;;;;;;6.00;99.90;;;;;;5009092;28;19964;-69
2022/01/02 08:38:44;;;;;;;;;;;6.20;99.90;;;;;;5009673;28;19914;-66
2022/01/02 08:41:10;;;;;;;;;;;6.20;99.90;;;;;;5010709;28;20274;-68
2022/01/02 08:43:35;;;;;;;;;;;6.30;99.90;;;;;;5008548;28;19910;-68
2022/01/02 08:46:01;;;;;;;;;;;6.30;99.90;;;;;;5011110;28;20378;-67
2022/01/02 08:48:27;;;;;;;;;;;6.30;99.90;;;;;;5009082;28;19909;-68
2022/01/02 08:50:53;;;;;;;;;;;6.40;99.90;;;;;;5010645;28;20263;-69
2022/01/02 08:53:18;;;;;;;;;;;6.50;99.90;;;;;;5014612;28;20008;-66
2022/01/02 08:55:44;;;;;;;;;;;6.50;99.90;;;;;;5018188;28;19971;-68
2022/01/02 08:58:10;;;;;;;;;;;6.50;99.90;;;;;;5018386;28;19913;-69
2022/01/02 09:00:36;;;;;;;;;;;6.40;99.90;;;;;;5014196;28;19910;-69
2022/01/02 09:03:01;;;;;;;;;;;6.50;99.90;;;;;;5008530;28;19913;-67
2022/01/02 09:05:27;;;;;;;;;;;6.40;99.90;;;;;;5004557;28;19916;-65
2022/01/02 09:07:54;;;;;;;;;;;6.40;99.90;;;;;;5008888;28;20000;-68
2022/01/02 09:10:19;;;;;;;;;;;6.40;99.90;;;;;;5008008;28;20260;-71
2022/01/02 09:12:45;;;;;;;;;;;6.60;99.90;;;;;;5003684;28;20012;-73
2022/01/02 09:15:11;;;;;;;;;;;6.70;99.90;;;;;;5003721;28;19917;-71
2022/01/02 09:17:37;;;;;;;;;;;6.60;99.90;;;;;;5002954;28;19951;-68
2022/01/02 09:20:03;;;;;;;;;;;6.70;99.90;;;;;;5003688;28;19920;-68
2022/01/02 09:22:29;;;;;;;;;;;6.60;99.90;;;;;;5007033;28;19924;-68
2022/01/02 09:24:54;;;;;;;;;;;6.50;99.90;;;;;;5007834;28;19913;-73
2022/01/02 09:27:20;;;;;;;;;;;6.20;99.90;;;;;;5003814;28;19917;-67
2022/01/02 09:29:46;;;;;;;;;;;6.10;99.90;;;;;;5003254;28;20437;-69
2022/01/02 09:32:11;;;;;;;;;;;6.10;99.90;;;;;;5004357;28;19909;-66
2022/01/02 09:34:37;;;;;;;;;;;6.00;99.90;;;;;;5002454;28;19916;-67
2022/01/02 09:37:04;;;;;;;;;;;5.80;99.90;;;;;;5005719;28;19909;-68
2022/01/02 09:39:29;;;;;;;;;;;5.80;99.90;;;;;;5004057;28;20302;-67
2022/01/02 09:41:55;;;;;;;;;;;5.90;99.90;;;;;;5005435;28;19925;-67
2022/01/02 09:44:21;;;;;;;;;;;6.00;99.90;;;;;;5009041;28;20387;-67
2022/01/02 09:46:48;;;;;;;;;;;6.10;99.90;;;;;;5011522;28;20382;-67
2022/01/02 09:49:13;;;;;;;;;;;6.20;99.90;;;;;;5007552;28;19916;-67
2022/01/02 09:51:39;;;;;;;;;;;6.20;99.90;;;;;;5010030;28;19909;-68
2022/01/02 09:54:05;;;;;;;;;;;6.20;99.90;;;;;;5005995;28;19909;-68
2022/01/02 09:56:30;;;;;;;;;;;6.20;99.90;;;;;;5004490;28;19928;-66
2022/01/02 09:58:56;;;;;;;;;;;6.30;99.90;;;;;;5010444;28;20012;-68
2022/01/02 10:01:24;;;;;;;;;;;6.40;99.90;;;;;;5009533;28;19910;-69
2022/01/02 10:03:54;;;;;;;;;;;6.40;99.90;;;;;;5007765;28;19909;-68
2022/01/02 10:06:21;;;;;;;;;;;6.40;99.90;;;;;;5009595;28;20378;-68
2022/01/02 10:08:47;;;;;;;;;;;6.40;99.90;;;;;;5009264;28;19960;-70
2022/01/02 10:11:23;;;;;;;;;;;6.60;99.90;;;;;;5011131;28;19909;-68
2022/01/02 10:13:53;;;;;;;;;;;6.70;99.90;;;;;;5009066;28;19924;-68
2022/01/02 10:16:22;;;;;;;;;;;6.80;99.90;;;;;;5010190;28;19968;-69
2022/01/02 10:18:49;;;;;;;;;;;6.90;99.90;;;;;;5011060;28;20103;-70
2022/01/02 10:21:30;;;;;;;;;;;6.90;99.90;;;;;;5006469;28;19916;-69
2022/01/02 10:24:14;;;;;;;;;;;6.90;99.90;;;;;;5004061;28;20328;-68
2022/01/02 10:26:40;;;;;;;;;;;6.90;99.90;;;;;;5003814;28;19932;-68
2022/01/02 10:29:09;;;;;;;;;;;6.90;99.90;;;;;;5014012;28;19945;-71
2022/01/02 10:31:35;;;;;;;;;;;6.90;99.90;;;;;;5009392;28;19917;-69
2022/01/02 10:34:01;;;;;;;;;;;7.10;99.90;;;;;;5013810;28;19910;-67
2022/01/02 10:36:26;;;;;;;;;;;7.10;99.90;;;;;;5014280;28;20330;-68
2022/01/02 10:39:03;;;;;;;;;;;7.10;99.90;;;;;;5011703;28;19914;-68
2022/01/02 10:41:30;;;;;;;;;;;7.10;99.90;;;;;;5010362;28;19917;-68
2022/01/02 10:44:15;;;;;;;;;;;7.00;99.90;;;;;;5014254;28;20276;-67
2022/01/02 10:47:00;;;;;;;;;;;7.10;99.90;;;;;;5013893;28;19932;-68
2022/01/02 10:49:45;;;;;;;;;;;7.10;99.90;;;;;;5013030;28;20403;-68
2022/01/02 10:52:21;;;;;;;;;;;7.10;99.90;;;;;;5015255;28;19913;-68
2022/01/02 10:54:47;;;;;;;;;;;7.10;99.90;;;;;;5013964;28;20333;-67
2022/01/02 10:57:12;;;;;;;;;;;7.00;99.90;;;;;;5013648;28;19976;-67
2022/01/02 10:59:38;;;;;;;;;;;7.10;99.90;;;;;;5012349;28;19913;-68
2022/01/02 11:02:05;;;;;;;;;;;7.10;99.90;;;;;;5013292;28;19971;-67
2022/01/02 11:04:31;;;;;;;;;;;7.20;99.90;;;;;;5011998;28;20115;-67
2022/01/02 11:07:00;;;;;;;;;;;7.30;99.90;;;;;;5012148;28;19971;-67
2022/01/02 11:09:27;;;;;;;;;;;7.30;99.90;;;;;;5015793;28;19910;-66
2022/01/02 11:11:53;;;;;;;;;;;7.30;99.90;;;;;;5014246;28;20434;-67
2022/01/02 11:14:18;;;;;;;;;;;7.30;99.90;;;;;;5013600;28;19924;-67
2022/01/02 11:16:44;;;;;;;;;;;7.30;99.90;;;;;;5013442;28;19906;-67
2022/01/02 11:19:11;;;;;;;;;;;7.40;99.90;;;;;;5013028;28;19981;-68
2022/01/02 11:21:38;;;;;;;;;;;7.30;99.90;;;;;;5024775;28;20291;-67
2022/01/02 11:24:12;;;;;;;;;;;7.40;99.90;;;;;;5016783;28;19912;-70
2022/01/02 11:26:43;;;;;;;;;;;7.50;99.90;;;;;;5001532;28;19917;-70
2022/01/02 11:29:09;;;;;;;;;;;7.40;99.90;;;;;;5010670;28;19913;-69
2022/01/02 11:31:39;;;;;;;;;;;7.40;99.90;;;;;;5013128;28;19918;-68
2022/01/02 11:34:23;;;;;;;;;;;7.50;99.90;;;;;;5011977;28;19996;-66
2022/01/02 11:36:49;;;;;;;;;;;7.50;99.90;;;;;;4993664;28;20004;-68
2022/01/02 11:39:15;;;;;;;;;;;7.50;99.90;;;;;;4992077;28;19956;-67
2022/01/02 11:41:44;;;;;;;;;;;7.60;99.90;;;;;;5009494;28;19953;-68
2022/01/02 11:44:10;;;;;;;;;;;7.80;99.90;;;;;;5013732;28;19959;-68
2022/01/02 11:46:39;;;;;;;;;;;7.90;99.90;;;;;;5013008;28;19909;-68
2022/01/02 11:49:05;;;;;;;;;;;8.10;99.90;;;;;;5012914;28;20032;-68
2022/01/02 11:51:49;;;;;;;;;;;8.10;99.90;;;;;;4996608;28;19914;-68
2022/01/02 11:54:27;;;;;;;;;;;8.30;99.90;;;;;;4993878;28;19953;-70
2022/01/02 11:56:53;;;;;;;;;;;8.40;99.90;;;;;;4993655;28;19908;-68
2022/01/02 11:59:37;;;;;;;;;;;8.50;99.90;;;;;;5005554;28;19956;-68
2022/01/02 12:02:06;;;;;;;;;;;8.60;99.90;;;;;;5012857;28;19910;-70
2022/01/02 12:04:50;;;;;;;;;;;8.60;99.90;;;;;;5012399;28;19909;-71
2022/01/02 12:07:34;;;;;;;;;;;8.60;99.90;;;;;;4995061;28;20409;-69
2022/01/02 12:10:22;;;;;;;;;;;8.50;99.90;;;;;;5011837;28;20000;-69
2022/01/02 12:12:57;;;;;;;;;;;8.50;99.90;;;;;;5003450;28;19928;-68
2022/01/02 12:15:23;;;;;;;;;;;8.50;99.90;;;;;;5010183;28;19917;-68
2022/01/02 12:18:07;;;;;;;;;;;8.50;99.90;;;;;;5010720;28;19917;-68
2022/01/02 12:21:00;;;;;;;;;;;8.40;99.90;;;;;;5011292;28;19910;-67
2022/01/02 12:26:02;;;;;;;;;;;8.40;99.90;;;;;;5003984;28;19909;-70
2022/01/02 12:28:29;;;;;;;;;;;8.20;99.90;;;;;;5011869;28;19984;-68
2022/01/02 12:30:56;;;;;;;;;;;8.10;99.90;;;;;;5012319;28;19927;-69
2022/01/02 12:33:25;;;;;;;;;;;7.90;99.90;;;;;;5010464;28;19916;-68
2022/01/02 12:35:51;;;;;;;;;;;7.60;99.90;;;;;;5009550;28;20092;-66
2022/01/02 12:38:16;;;;;;;;;;;7.40;99.90;;;;;;5004070;28;19996;-68
2022/01/02 12:40:42;;;;;;;;;;;7.30;99.90;;;;;;5005418;28;19909;-69
2022/01/02 12:43:09;;;;;;;;;;;7.20;99.90;;;;;;5004510;28;19916;-68
2022/01/02 12:45:34;;;;;;;;;;;7.10;99.90;;;;;;5003254;28;20344;-69
2022/01/02 12:48:00;;;;;;;;;;;7.20;99.90;;;;;;5009669;28;19909;-67
2022/01/02 12:50:27;;;;;;;;;;;7.40;99.90;;;;;;5010518;28;19944;-65
2022/01/02 12:52:53;;;;;;;;;;;7.50;99.90;;;;;;5003781;28;19924;-68
2022/01/02 12:55:19;;;;;;;;;;;7.60;99.90;;;;;;4999860;28;19917;-68
2022/01/02 12:57:44;;;;;;;;;;;7.70;99.90;;;;;;5003751;28;19909;-70
2022/01/02 13:00:10;;;;;;;;;;;7.70;99.90;;;;;;4999850;28;19913;-67
2022/01/02 13:02:36;;;;;;;;;;;7.90;99.90;;;;;;5004139;28;19996;-68
2022/01/02 13:05:03;;;;;;;;;;;8.00;99.90;;;;;;5009808;28;20044;-69
2022/01/02 13:07:35;;;;;;;;;;;8.10;99.90;;;;;;5010527;28;19914;-68
2022/01/02 13:10:01;;;;;;;;;;;8.20;99.90;;;;;;5007071;28;20009;-68
2022/01/02 13:12:31;;;;;;;;;;;8.30;99.90;;;;;;5010919;28;19909;-73
2022/01/02 13:14:57;;;;;;;;;;;8.40;99.90;;;;;;5013369;28;19924;-67
2022/01/02 13:17:29;;;;;;;;;;;8.50;99.90;;;;;;5011398;28;19918;-70
2022/01/02 13:19:58;;;;;;;;;;;8.70;99.90;;;;;;4989971;28;19906;-67
2022/01/02 13:22:25;;;;;;;;;;;8.70;99.90;;;;;;4991399;28;19912;-70
2022/01/02 13:24:56;;;;;;;;;;;8.90;99.90;;;;;;5004982;28;20331;-67
2022/01/02 13:27:25;;;;;;;;;;;8.90;99.90;;;;;;5010606;28;19918;-67
2022/01/02 13:30:02;;;;;;;;;;;9.00;99.90;;;;;;5010443;28;19912;-68
2022/01/02 13:32:28;;;;;;;;;;;9.10;99.90;;;;;;5009828;28;20231;-67
2022/01/02 13:35:00;;;;;;;;;;;9.00;99.90;;;;;;5010680;28;20326;-68
2022/01/02 13:37:33;;;;;;;;;;;8.90;99.90;;;;;;5010555;28;19958;-66
2022/01/02 13:39:59;;;;;;;;;;;8.80;99.90;;;;;;5010310;28;19909;-70
2022/01/02 13:42:38;;;;;;;;;;;8.70;99.90;;;;;;5010568;28;19931;-67
2022/01/02 13:45:07;;;;;;;;;;;8.60;99.90;;;;;;5010586;28;19911;-68
2022/01/02 13:47:34;;;;;;;;;;;8.60;99.90;;;;;;5005879;28;20335;-68
2022/01/02 13:50:00;;;;;;;;;;;8.50;99.90;;;;;;5012240;28;19964;-68
2022/01/02 13:52:25;;;;;;;;;;;8.50;99.90;;;;;;5014688;28;19913;-67
2022/01/02 13:55:05;;;;;;;;;;;8.60;99.90;;;;;;5014934;28;19928;-67
2022/01/02 13:57:31;;;;;;;;;;;8.70;99.90;;;;;;5014303;28;20371;-68
2022/01/02 13:59:56;;;;;;;;;;;8.90;99.90;;;;;;5013157;28;19906;-69
2022/01/02 14:02:37;;;;;;;;;;;9.00;99.90;;;;;;5013623;28;19920;-66
2022/01/02 14:05:02;;;;;;;;;;;9.20;99.90;;;;;;5012454;28;20556;-68
2022/01/02 14:07:29;;;;;;;;;;;9.30;99.90;;;;;;5013965;28;19909;-71
2022/01/02 14:09:55;;;;;;;;;;;9.50;99.90;;;;;;5006951;28;19963;-69
2022/01/02 14:12:24;;;;;;;;;;;9.60;99.90;;;;;;5011962;28;19917;-69
2022/01/02 14:14:57;;;;;;;;;;;9.60;99.90;;;;;;5013659;28;20275;-68
2022/01/02 14:17:33;;;;;;;;;;;9.60;99.90;;;;;;5009621;28;20031;-68
2022/01/02 14:19:59;;;;;;;;;;;9.50;99.90;;;;;;5013874;28;19917;-70
2022/01/02 14:22:26;;;;;;;;;;;9.40;99.90;;;;;;5011732;28;20205;-69
2022/01/02 14:24:53;;;;;;;;;;;9.40;99.90;;;;;;5011881;28;19910;-69
2022/01/02 14:27:23;;;;;;;;;;;9.30;99.90;;;;;;5010392;28;19913;-69
2022/01/02 14:29:49;;;;;;;;;;;9.30;99.90;;;;;;5010888;28;19948;-69
2022/01/02 14:32:15;;;;;;;;;;;9.30;99.90;;;;;;5013819;28;19952;-68
2022/01/02 14:34:42;;;;;;;;;;;9.30;99.90;;;;;;5013165;28;20318;-70
2022/01/02 14:37:08;;;;;;;;;;;9.30;99.90;;;;;;5010066;28;19910;-70
2022/01/02 14:39:33;;;;;;;;;;;9.20;99.90;;;;;;5007851;28;20280;-72
2022/01/02 14:41:59;;;;;;;;;;;9.40;99.90;;;;;;5012030;28;19961;-68
2022/01/02 14:44:25;;;;;;;;;;;9.30;99.90;;;;;;5012971;28;19906;-68